Time;durP1;ratioP1;P1;durP2;ratioP2;P2;SDS_P1;SDS_P2;PMS_P1;PMS_P2;Temp;Humidity;BMP_temperature;BMP_pressure;BME280_temperature;BME280_humidity;BME280_pressure;Samples;Min_cycle;Max_cycle;Signal;HPM_P1;HPM_P2
2022/09/17 05:44:36;;;;;;;4.10;2.00;;;;;;;18.03;45.46;99120.25;106511;1288;544487;-78
2022/09/17 05:47:06;;;;;;;4.30;2.00;;;;;;;16.60;46.15;99118.23;108545;1272;173849;-80
2022/09/17 05:49:35;;;;;;;4.50;2.10;;;;;;;15.57;48.21;99119.27;109080;1270;23055;-80
2022/09/17 05:52:04;;;;;;;8.30;2.80;;;;;;;14.82;50.26;99122.35;108963;1271;21989;-79
2022/09/17 05:54:33;;;;;;;5.90;2.40;;;;;;;14.20;51.91;99119.34;108788;1272;21988;-83
2022/09/17 05:57:03;;;;;;;6.90;2.20;;;;;;;13.72;53.60;99122.91;107727;1270;1673680;-85
2022/09/17 05:59:38;;;;;;;3.90;2.30;;;;;;;13.38;54.90;99120.91;108686;1273;22632;-82
2022/09/17 06:02:12;;;;;;;6.60;2.40;;;;;;;13.08;56.05;99120.70;109044;1270;21977;-79
2022/09/17 06:04:42;;;;;;;5.00;2.20;;;;;;;12.83;57.02;99121.16;108982;1267;23805;-82
2022/09/17 06:07:54;;;;;;;4.40;1.80;;;;;;;12.66;58.40;99123.98;109138;1267;21981;-82
2022/09/17 06:10:24;;;;;;;8.20;2.20;;;;;;;12.45;59.30;99126.25;108932;1271;22008;-83
2022/09/17 06:13:00;;;;;;;4.30;2.40;;;;;;;12.36;60.07;99130.16;108800;1270;21991;-79
2022/09/17 06:15:31;;;;;;;5.80;2.80;;;;;;;12.23;60.73;99131.13;108646;1275;21997;-80
2022/09/17 06:18:00;;;;;;;5.40;2.50;;;;;;;12.17;61.54;99133.44;108456;1273;23111;-80
2022/09/17 06:20:29;;;;;;;9.30;3.20;;;;;;;12.14;62.15;99131.34;108839;1264;22088;-79
2022/09/17 06:22:58;;;;;;;5.30;2.40;;;;;;;12.12;62.51;99130.27;109312;1266;23684;-80
2022/09/17 06:25:28;;;;;;;5.00;2.30;;;;;;;12.10;62.84;99127.94;108923;1271;22094;-80
2022/09/17 06:27:57;;;;;;;6.50;2.40;;;;;;;12.07;63.22;99127.80;108782;1267;24241;-79
2022/09/17 06:30:26;;;;;;;5.60;2.20;;;;;;;12.05;63.64;99126.33;108836;1270;23133;-79
2022/09/17 06:32:58;;;;;;;4.70;2.10;;;;;;;12.02;63.99;99125.29;109181;1263;23673;-79
2022/09/17 06:35:28;;;;;;;5.60;2.10;;;;;;;12.02;64.31;99124.09;109350;1264;22743;-79
2022/09/17 06:37:58;;;;;;;7.10;2.50;;;;;;;12.03;64.66;99128.23;109770;1262;23612;-79
2022/09/17 06:40:27;;;;;;;8.50;2.50;;;;;;;12.01;64.78;99131.15;109549;1264;23602;-80
2022/09/17 06:42:58;;;;;;;10.60;3.00;;;;;;;12.00;65.09;99130.88;109253;1262;23902;-80
2022/09/17 06:45:28;;;;;;;5.20;2.80;;;;;;;11.98;65.31;99131.20;109998;1261;23582;-79
2022/09/17 06:48:03;;;;;;;11.40;4.20;;;;;;;11.98;65.49;99136.77;109618;1261;22039;-79
2022/09/17 06:50:32;;;;;;;8.40;3.20;;;;;;;12.00;65.72;99138.71;110050;1260;22437;-79
2022/09/17 06:53:04;;;;;;;4.80;2.40;;;;;;;12.02;65.96;99135.24;110073;1259;23023;-79
2022/09/17 06:55:33;;;;;;;4.30;2.90;;;;;;;12.04;66.10;99135.30;109179;1265;22301;-78
2022/09/17 06:58:03;;;;;;;5.70;2.70;;;;;;;12.04;66.24;99136.70;109133;1268;23624;-79
2022/09/17 07:00:32;;;;;;;7.30;4.20;;;;;;;12.04;66.38;99137.23;109017;1265;23579;-79
2022/09/17 07:03:01;;;;;;;3.00;2.10;;;;;;;12.06;66.47;99138.33;109383;1264;23587;-79
2022/09/17 07:05:31;;;;;;;5.50;2.70;;;;;;;12.08;66.63;99143.95;108967;1271;22308;-79
2022/09/17 07:08:02;;;;;;;4.70;2.90;;;;;;;12.10;66.81;99151.84;108995;1270;23058;-80
2022/09/17 07:10:31;;;;;;;10.90;3.50;;;;;;;12.09;66.92;99151.71;108730;1276;22000;-79
2022/09/17 07:13:00;;;;;;;4.90;3.00;;;;;;;12.06;67.00;99150.38;108736;1273;22002;-79
2022/09/17 07:15:30;;;;;;;2.70;2.30;;;;;;;12.05;67.21;99155.48;108520;1269;23016;-79
2022/09/17 07:18:01;;;;;;;9.80;3.00;;;;;;;12.05;67.40;99161.25;108844;1269;21981;-79
2022/09/17 07:20:33;;;;;;;3.70;1.90;;;;;;;12.03;67.40;99168.48;109133;1270;22001;-80
2022/09/17 07:23:02;;;;;;;4.20;2.50;;;;;;;12.02;67.59;99171.36;109210;1261;22068;-81
2022/09/17 07:25:34;;;;;;;4.60;2.50;;;;;;;12.02;67.79;99175.54;109319;1264;23021;-79
2022/09/17 07:28:03;;;;;;;6.00;3.20;;;;;;;12.03;67.99;99174.81;108982;1264;23697;-80
2022/09/17 07:30:32;;;;;;;4.60;2.80;;;;;;;12.04;68.12;99180.10;109594;1261;23596;-80
2022/09/17 07:33:02;;;;;;;5.00;3.30;;;;;;;12.06;68.30;99182.06;109827;1262;22085;-79
2022/09/17 07:35:31;;;;;;;4.70;3.30;;;;;;;12.11;68.50;99179.49;109947;1262;23063;-78
2022/09/17 07:38:00;;;;;;;4.50;2.80;;;;;;;12.23;68.80;99179.80;109779;1262;21987;-78
2022/09/17 07:40:29;;;;;;;4.10;2.80;;;;;;;12.39;69.16;99190.52;109587;1261;21992;-78
2022/09/17 07:43:00;;;;;;;2.90;1.90;;;;;;;12.57;69.10;99189.02;109690;1261;23148;-78
2022/09/17 07:45:36;;;;;;;2.90;1.70;;;;;;;12.69;68.53;99193.46;109976;1257;22097;-78
2022/09/17 07:48:07;;;;;;;2.70;1.80;;;;;;;12.77;68.11;99193.44;109999;1257;21972;-79
2022/09/17 07:50:36;;;;;;;2.50;1.70;;;;;;;12.86;67.76;99193.54;110350;1256;23580;-78
2022/09/17 07:53:05;;;;;;;2.40;2.10;;;;;;;12.90;67.18;99194.34;110248;1258;21965;-77
2022/09/17 07:55:34;;;;;;;2.60;2.10;;;;;;;12.92;66.80;99191.61;110311;1257;23677;-78
2022/09/17 07:58:04;;;;;;;2.60;2.30;;;;;;;12.97;66.83;99188.83;109282;1261;23654;-78
2022/09/17 08:00:33;;;;;;;4.10;2.60;;;;;;;13.04;66.72;99193.61;109615;1262;24477;-79
2022/09/17 08:03:02;;;;;;;3.20;2.40;;;;;;;13.11;66.45;99192.08;109326;1261;21977;-78
2022/09/17 08:05:31;;;;;;;4.00;2.60;;;;;;;13.19;66.37;99196.28;109834;1261;23454;-78
2022/09/17 08:08:02;;;;;;;4.10;2.90;;;;;;;13.26;66.03;99204.38;109563;1261;23601;-79
2022/09/17 08:10:32;;;;;;;2.30;1.90;;;;;;;13.27;65.62;99208.16;109602;1262;21976;-77
2022/09/17 08:13:04;;;;;;;3.60;2.10;;;;;;;13.23;65.23;99212.45;109459;1261;23654;-79
2022/09/17 08:15:33;;;;;;;7.20;2.90;;;;;;;13.16;64.88;99218.28;109837;1257;22015;-79
2022/09/17 08:18:03;;;;;;;4.30;2.90;;;;;;;13.11;64.76;99225.46;110171;1258;22743;-78
2022/09/17 08:20:35;;;;;;;3.70;2.50;;;;;;;13.07;64.68;99227.12;110380;1256;21970;-78
2022/09/17 08:23:04;;;;;;;3.20;2.70;;;;;;;13.02;64.67;99228.13;110052;1258;21964;-77
2022/09/17 08:25:33;;;;;;;2.80;2.50;;;;;;;13.00;64.78;99229.82;110202;1256;21981;-78
2022/09/17 08:28:02;;;;;;;3.80;2.50;;;;;;;13.00;64.86;99232.12;110114;1258;23639;-78
2022/09/17 08:30:31;;;;;;;4.30;2.80;;;;;;;13.02;64.92;99240.67;110350;1256;23712;-77
2022/09/17 08:33:00;;;;;;;5.00;3.10;;;;;;;13.03;65.03;99239.08;109542;1264;23042;-79
2022/09/17 08:35:29;;;;;;;4.00;3.60;;;;;;;13.05;65.02;99237.38;109550;1262;22032;-77
2022/09/17 08:38:02;;;;;;;5.50;4.10;;;;;;;13.06;65.06;99235.41;109438;1264;22444;-77
2022/09/17 08:41:06;;;;;;;5.40;4.10;;;;;;;13.03;65.21;99217.92;110412;1264;21988;-77
2022/09/17 08:43:49;;;;;;;4.80;3.20;;;;;;;13.04;65.24;99221.02;109632;1264;23684;-77
2022/09/17 08:46:20;;;;;;;4.30;3.60;;;;;;;13.06;65.36;99216.90;109360;1262;23085;-78
2022/09/17 08:49:05;;;;;;;6.90;4.40;;;;;;;13.07;65.50;99214.52;109218;1267;23844;-78
2022/09/17 08:51:55;;;;;;;4.20;3.80;;;;;;;13.10;65.61;99213.66;109659;1261;22856;-78
2022/09/17 08:55:06;;;;;;;5.00;3.40;;;;;;;13.13;65.79;99214.27;109979;1261;23599;-78
2022/09/17 08:58:01;;;;;;;4.60;3.70;;;;;;;13.15;65.80;99215.55;109599;1263;21971;-79
2022/09/17 09:01:18;;;;;;;6.50;5.80;;;;;;;13.17;65.91;99218.02;109187;1267;21963;-78
2022/09/17 09:04:39;;;;;;;4.50;3.70;;;;;;;13.18;66.09;99222.37;109075;1265;23615;-78
2022/09/17 09:07:21;;;;;;;6.60;3.40;;;;;;;13.19;66.09;99228.04;109598;1262;22106;-79
2022/09/17 09:10:32;;;;;;;4.00;3.20;;;;;;;13.22;66.04;99231.02;109634;1263;21974;-77
2022/09/17 09:13:03;;;;;;;4.50;3.20;;;;;;;13.21;66.13;99234.89;108843;1270;23110;-78
2022/09/17 09:15:39;;;;;;;7.50;4.90;;;;;;;13.24;66.26;99239.27;109185;1267;21989;-78
2022/09/17 09:18:34;;;;;;;8.30;5.40;;;;;;;13.27;66.39;99237.50;109047;1265;21979;-77
2022/09/17 09:21:27;;;;;;;6.60;5.20;;;;;;;13.29;66.51;99237.54;109224;1264;23837;-78
2022/09/17 09:24:25;;;;;;;5.70;4.40;;;;;;;13.32;66.67;99236.54;109593;1263;23608;-78
2022/09/17 09:27:17;;;;;;;3.50;3.20;;;;;;;13.33;66.78;99232.95;109701;1264;22778;-77
2022/09/17 09:30:17;;;;;;;8.50;4.10;;;;;;;13.33;66.83;99228.25;109582;1264;22179;-78
2022/09/17 09:33:10;;;;;;;4.20;3.00;;;;;;;13.28;66.84;99219.45;108934;1268;22226;-77
2022/09/17 09:35:43;;;;;;;6.00;4.20;;;;;;;13.23;67.06;99218.73;109124;1268;21982;-78
2022/09/17 09:38:30;;;;;;;8.60;3.50;;;;;;;13.22;67.32;99218.04;108851;1268;23612;-77
2022/09/17 09:41:15;;;;;;;3.50;3.20;;;;;;;13.15;67.36;99211.56;109127;1268;22055;-78
2022/09/17 09:43:57;;;;;;;6.70;3.90;;;;;;;13.17;67.69;99228.18;109041;1270;22454;-80
2022/09/17 09:46:50;;;;;;;5.00;4.10;;;;;;;13.21;68.04;99235.10;109007;1267;23674;-79
2022/09/17 09:49:40;;;;;;;5.90;4.80;;;;;;;13.23;68.19;99240.56;109079;1264;23148;-78
2022/09/17 09:52:53;;;;;;;7.70;5.30;;;;;;;13.27;68.37;99240.48;109671;1264;23602;-78
2022/09/17 09:56:02;;;;;;;5.40;4.70;;;;;;;13.33;68.67;99244.48;109704;1261;21987;-78
2022/09/17 09:58:40;;;;;;;8.60;5.40;;;;;;;13.40;68.69;99247.00;109642;1264;22043;-77
2022/09/17 10:01:22;;;;;;;7.70;6.90;;;;;;;13.44;68.68;99253.19;109606;1261;22008;-78
2022/09/17 10:03:57;;;;;;;9.70;6.40;;;;;;;13.47;68.57;99255.07;109478;1264;23126;-78
2022/09/17 10:06:29;;;;;;;;;;;;;;;13.51;68.38;99259.70;109778;1261;21949;-78
2022/09/17 10:08:58;;;;;;;5.80;4.80;;;;;;;13.43;68.54;99261.76;109041;1263;22899;-78
2022/09/17 10:11:34;;;;;;;7.00;5.60;;;;;;;13.42;68.34;99264.68;109989;1260;21970;-77
2022/09/17 10:14:25;;;;;;;8.10;5.60;;;;;;;13.43;68.43;99273.70;109665;1262;22404;-78
2022/09/17 10:17:19;;;;;;;9.10;5.80;;;;;;;13.45;68.46;99279.52;109664;1262;21984;-77
2022/09/17 10:20:16;;;;;;;8.30;6.60;;;;;;;13.48;68.58;99277.56;109725;1262;21975;-78
2022/09/17 10:22:50;;;;;;;10.40;6.90;;;;;;;13.54;68.82;99279.98;109618;1261;23582;-78
2022/09/17 10:25:23;;;;;;;7.40;6.10;;;;;;;13.59;68.53;99279.94;109757;1260;22038;-78
2022/09/17 10:27:52;;;;;;;7.20;5.90;;;;;;;13.62;68.42;99277.98;110310;1254;23589;-79
2022/09/17 10:30:23;;;;;;;7.90;6.30;;;;;;;13.65;68.38;99285.84;110606;1257;21967;-78
2022/09/17 10:33:24;;;;;;;7.90;6.20;;;;;;;13.70;68.45;99291.25;110376;1257;22842;-78
2022/09/17 10:36:02;;;;;;;12.20;6.50;;;;;;;13.74;68.34;99295.23;110052;1257;23720;-80
2022/09/17 10:38:35;;;;;;;9.10;7.70;;;;;;;13.76;68.14;99303.62;110466;1256;23063;-76
2022/09/17 10:41:14;;;;;;;13.90;9.50;;;;;;;13.77;68.06;99308.33;110114;1257;23353;-78
2022/09/17 10:43:44;;;;;;;12.60;7.10;;;;;;;13.79;68.04;99297.87;110220;1256;21966;-77
2022/09/17 10:46:28;;;;;;;12.10;8.10;;;;;;;13.81;68.05;99297.00;109971;1260;21981;-77
2022/09/17 10:49:18;;;;;;;8.60;6.20;;;;;;;13.85;68.13;99303.36;109455;1263;21988;-77
2022/09/17 10:51:47;;;;;;;12.30;8.30;;;;;;;13.91;68.10;99303.71;109798;1263;21977;-77
2022/09/17 10:54:34;;;;;;;12.70;9.80;;;;;;;13.96;68.06;99304.76;109774;1263;21979;-79
2022/09/17 10:57:06;;;;;;;11.20;8.30;;;;;;;14.01;67.98;99310.33;109902;1261;23628;-78
2022/09/17 11:00:06;;;;;;;12.10;7.90;;;;;;;14.08;67.93;99314.09;109238;1264;22073;-76
2022/09/17 11:03:30;;;;;;;10.30;7.70;;;;;;;14.10;67.71;99313.04;109150;1267;23086;-77
2022/09/17 11:06:40;;;;;;;8.60;7.10;;;;;;;14.11;67.48;99307.70;110113;1260;23746;-78
2022/09/17 11:09:37;;;;;;;6.80;6.00;;;;;;;14.09;67.44;99299.45;109178;1267;23723;-78
2022/09/17 11:12:22;;;;;;;8.00;5.20;;;;;;;14.11;67.34;99287.05;109150;1267;21989;-77
2022/09/17 11:15:28;;;;;;;7.50;5.00;;;;;;;14.15;67.28;99291.70;109156;1267;23045;-77
2022/09/17 11:18:34;;;;;;;12.70;6.10;;;;;;;14.17;67.18;99299.06;109398;1264;22771;-79
2022/09/17 11:21:47;;;;;;;6.10;5.10;;;;;;;14.24;67.31;99303.67;109359;1265;23160;-78
2022/09/17 11:24:22;;;;;;;8.80;5.20;;;;;;;14.36;67.24;99310.01;108814;1270;22201;-78
2022/09/17 11:27:12;;;;;;;9.80;6.00;;;;;;;14.46;66.70;99313.36;108743;1270;22579;-77
2022/09/17 11:29:44;;;;;;;9.80;5.30;;;;;;;14.49;66.42;99316.68;109256;1270;24302;-77
2022/09/17 11:32:35;;;;;;;7.40;6.40;;;;;;;14.48;66.15;99315.49;108749;1271;22142;-78
2022/09/17 11:35:32;;;;;;;9.60;5.90;;;;;;;14.48;66.00;99311.80;108840;1270;23685;-78
2022/09/17 11:38:14;;;;;;;7.90;5.90;;;;;;;14.46;65.70;99307.91;108769;1270;22004;-77
2022/09/17 11:40:51;;;;;;;6.90;5.60;;;;;;;14.50;65.98;99308.67;108814;1270;23812;-77
2022/09/17 11:43:27;;;;;;;10.60;6.00;;;;;;;14.64;66.14;99305.10;108451;1276;22005;-77
2022/09/17 11:46:32;;;;;;;9.20;5.10;;;;;;;14.79;66.13;99303.66;108470;1270;21982;-78
2022/09/17 11:49:17;;;;;;;9.80;6.00;;;;;;;14.95;65.80;99297.47;109111;1267;23023;-77
2022/09/17 11:52:29;;;;;;;7.30;5.00;;;;;;;15.05;65.35;99290.58;108887;1269;22002;-77
2022/09/17 11:55:30;;;;;;;7.10;5.30;;;;;;;15.18;65.25;99288.78;108976;1269;21969;-77
2022/09/17 11:58:18;;;;;;;7.90;5.60;;;;;;;15.30;64.98;99282.28;108620;1270;21984;-78
2022/09/17 12:01:00;;;;;;;7.80;5.30;;;;;;;15.43;64.57;99280.30;108893;1265;22042;-77
2022/09/17 12:04:02;;;;;;;9.20;5.00;;;;;;;15.49;63.96;99277.73;109276;1265;22210;-79
2022/09/17 12:06:43;;;;;;;6.60;4.30;;;;;;;15.53;63.62;99271.81;109495;1263;22047;-78
2022/09/17 12:09:20;;;;;;;4.30;3.60;;;;;;;15.60;63.21;99276.90;109614;1263;23016;-78
2022/09/17 12:12:16;;;;;;;4.10;3.70;;;;;;;15.62;62.93;99274.11;109539;1263;21975;-79
2022/09/17 12:15:18;;;;;;;9.10;4.20;;;;;;;15.69;62.80;99262.19;109817;1263;22827;-77
2022/09/17 12:18:21;;;;;;;6.00;4.10;;;;;;;15.79;62.65;99257.38;110248;1257;21990;-78
2022/09/17 12:21:14;;;;;;;7.50;3.60;;;;;;;15.81;62.15;99250.18;110395;1257;22387;-77
2022/09/17 12:23:57;;;;;;;5.00;4.10;;;;;;;15.88;62.12;99246.39;109736;1261;22046;-78
2022/09/17 12:27:15;;;;;;;4.80;3.80;;;;;;;15.95;61.80;99246.50;108749;1269;161990;-78
2022/09/17 12:30:10;;;;;;;5.00;3.30;;;;;;;15.93;61.42;99237.87;108785;1272;22172;-77
2022/09/17 12:32:55;;;;;;;6.50;3.40;;;;;;;15.93;60.26;99230.16;108480;1276;23064;-78
2022/09/17 12:35:52;;;;;;;6.20;2.90;;;;;;;15.88;60.18;99226.75;108269;1280;23078;-78
2022/09/17 12:39:14;;;;;;;4.50;2.50;;;;;;;15.86;60.39;99224.61;108283;1279;23056;-79
2022/09/17 12:42:05;;;;;;;5.10;3.30;;;;;;;15.93;60.52;99222.63;108207;1279;23012;-79
2022/09/17 12:45:03;;;;;;;6.00;3.40;;;;;;;15.99;60.10;99216.92;108338;1279;21997;-79
2022/09/17 12:47:47;;;;;;;8.00;3.60;;;;;;;16.01;59.85;99208.31;108409;1276;21994;-78
2022/09/17 12:50:36;;;;;;;5.30;3.50;;;;;;;16.03;59.42;99203.05;108440;1271;22030;-77
2022/09/17 12:53:24;;;;;;;7.20;3.50;;;;;;;16.04;59.10;99196.90;109061;1264;24400;-78
2022/09/17 12:56:26;;;;;;;4.40;2.90;;;;;;;16.03;59.14;99193.29;109670;1264;22032;-77
2022/09/17 12:59:18;;;;;;;4.60;2.90;;;;;;;16.04;58.98;99187.70;109224;1266;23683;-77
2022/09/17 13:02:14;;;;;;;3.20;2.30;;;;;;;16.09;58.72;99182.64;109078;1268;22437;-78
2022/09/17 13:05:18;;;;;;;4.30;2.70;;;;;;;16.15;58.49;99186.70;109113;1267;22498;-79
2022/09/17 13:08:14;;;;;;;4.90;2.90;;;;;;;16.20;58.26;99192.45;109483;1263;22746;-77
2022/09/17 13:10:58;;;;;;;4.70;2.60;;;;;;;16.21;58.09;99190.39;109652;1260;21972;-78
2022/09/17 13:14:18;;;;;;;5.00;3.90;;;;;;;16.27;58.12;99188.56;110145;1257;22751;-77
2022/09/17 13:17:00;;;;;;;8.90;4.60;;;;;;;16.29;58.12;99197.54;110268;1257;21975;-78
2022/09/17 13:20:30;;;;;;;5.50;4.40;;;;;;;16.31;57.91;99195.79;110332;1257;23085;-78
2022/09/17 13:22:59;;;;;;;6.10;4.30;;;;;;;16.35;58.24;99190.73;110304;1258;21985;-80
2022/09/17 13:25:29;;;;;;;12.40;4.80;;;;;;;16.45;58.21;99190.96;110046;1257;23708;-78
2022/09/17 13:28:10;;;;;;;6.30;4.30;;;;;;;16.51;57.96;99189.80;109488;1264;23721;-79
2022/09/17 13:31:00;;;;;;;15.60;4.70;;;;;;;16.52;57.59;99186.40;109654;1263;23632;-77
2022/09/17 13:34:00;;;;;;;11.60;5.30;;;;;;;16.48;57.33;99187.60;109272;1265;21955;-79
2022/09/17 13:36:32;;;;;;;8.40;4.40;;;;;;;16.42;57.09;99190.16;109339;1264;23009;-78
2022/09/17 13:39:04;;;;;;;4.20;2.00;;;;;;;16.39;57.04;99192.66;109923;1260;23798;-79
2022/09/17 13:41:38;;;;;;;4.00;2.10;;;;;;;16.36;56.54;99192.07;109153;1267;23140;-77
2022/09/17 13:44:11;;;;;;;4.00;1.70;;;;;;;16.30;56.29;99189.23;109264;1265;22798;-78
2022/09/17 13:46:40;;;;;;;3.80;2.20;;;;;;;16.26;56.02;99186.73;109505;1263;21986;-77
2022/09/17 13:49:18;;;;;;;5.00;2.20;;;;;;;16.26;55.96;99180.39;109742;1263;21986;-79
2022/09/17 13:51:49;;;;;;;4.60;2.30;;;;;;;16.27;55.95;99179.97;109949;1260;23085;-78
2022/09/17 13:54:20;;;;;;;;;;;;;;;16.25;55.65;99176.62;109982;1260;22176;-79
2022/09/17 13:57:07;;;;;;;6.00;2.60;;;;;;;16.09;55.39;99175.79;109905;1260;23145;-77
2022/09/17 13:59:36;;;;;;;6.20;2.10;;;;;;;16.00;55.51;99167.54;110130;1254;22294;-79
2022/09/17 14:02:15;;;;;;;10.30;2.70;;;;;;;16.02;55.55;99167.95;110380;1254;21970;-79
2022/09/17 14:04:45;;;;;;;6.60;2.40;;;;;;;16.10;55.61;99178.16;110492;1254;22843;-79
2022/09/17 14:07:20;;;;;;;11.30;2.30;;;;;;;16.16;55.64;99175.20;110475;1254;24340;-78
2022/09/17 14:10:00;;;;;;;5.40;2.70;;;;;;;16.18;55.59;99183.27;110498;1257;22736;-78
2022/09/17 14:13:23;;;;;;;6.90;2.80;;;;;;;16.19;55.55;99186.04;110460;1256;22761;-78
2022/09/17 14:16:00;;;;;;;6.10;2.80;;;;;;;16.16;55.53;99184.48;109741;1261;21987;-78
2022/09/17 14:18:35;;;;;;;7.10;3.20;;;;;;;16.16;55.50;99177.70;109991;1260;22053;-78
2022/09/17 14:21:30;;;;;;;31.40;4.50;;;;;;;16.15;55.51;99179.33;109764;1260;22326;-78
2022/09/17 14:24:25;;;;;;;6.90;3.70;;;;;;;16.13;55.58;99183.38;110013;1260;21973;-78
2022/09/17 14:27:00;;;;;;;19.70;4.00;;;;;;;16.14;55.56;99184.19;109834;1260;21982;-79
2022/09/17 14:30:19;;;;;;;5.80;2.50;;;;;;;16.13;55.47;99185.31;110077;1260;22311;-77
2022/09/17 14:33:13;;;;;;;5.50;3.30;;;;;;;16.09;55.55;99174.70;110114;1260;22168;-77
2022/09/17 14:35:42;;;;;;;8.80;3.40;;;;;;;16.08;55.63;99171.16;109956;1262;23637;-78
2022/09/17 14:38:38;;;;;;;3.90;2.30;;;;;;;16.09;55.63;99164.38;110119;1260;23597;-78
2022/09/17 14:41:10;;;;;;;5.90;3.00;;;;;;;16.12;55.78;99158.02;109793;1260;23785;-78
2022/09/17 14:44:16;;;;;;;4.90;2.60;;;;;;;16.20;56.16;99156.45;109976;1260;23673;-78
2022/09/17 14:47:01;;;;;;;7.10;2.60;;;;;;;16.32;56.24;99153.77;109977;1262;21986;-78
2022/09/17 14:49:34;;;;;;;6.50;2.60;;;;;;;16.40;56.00;99148.54;109964;1261;21968;-78
2022/09/17 14:52:29;;;;;;;5.40;3.10;;;;;;;16.40;55.48;99150.77;109624;1257;21987;-78
2022/09/17 14:55:31;;;;;;;5.60;2.60;;;;;;;16.33;55.12;99152.09;110587;1254;22264;-78
2022/09/17 14:58:01;;;;;;;;;;;;;;;16.24;55.28;99147.21;109616;1263;21962;-78
2022/09/17 15:00:37;;;;;;;9.10;2.60;;;;;;;16.15;55.45;99142.49;108902;1267;22272;-78
2022/09/17 15:03:23;;;;;;;5.50;2.60;;;;;;;16.13;55.36;99140.39;108850;1267;21998;-78
2022/09/17 15:05:52;;;;;;;5.60;2.70;;;;;;;16.12;55.56;99137.63;108963;1267;23878;-78
2022/09/17 15:08:28;;;;;;;5.70;2.90;;;;;;;16.17;55.58;99140.21;108872;1267;23721;-78
2022/09/17 15:11:06;;;;;;;5.10;2.60;;;;;;;16.16;55.18;99139.92;109007;1267;23618;-78
2022/09/17 15:13:51;;;;;;;5.60;3.20;;;;;;;16.11;55.20;99138.80;108880;1267;22027;-78
2022/09/17 15:16:25;;;;;;;4.80;2.90;;;;;;;16.10;55.58;99139.56;108906;1268;21991;-78
2022/09/17 15:19:00;;;;;;;5.60;3.20;;;;;;;16.10;55.60;99140.61;109517;1262;24354;-78
2022/09/17 15:21:40;;;;;;;4.80;2.70;;;;;;;16.09;55.70;99143.50;109309;1264;23593;-77
2022/09/17 15:24:46;;;;;;;6.50;2.80;;;;;;;16.05;55.62;99152.24;109493;1264;23729;-80
2022/09/17 15:27:24;;;;;;;6.00;3.30;;;;;;;15.95;55.68;99157.08;109919;1262;22111;-78
2022/09/17 15:30:08;;;;;;;7.70;3.40;;;;;;;15.90;55.92;99153.75;109707;1263;21988;-78
2022/09/17 15:32:42;;;;;;;7.40;4.20;;;;;;;15.85;55.93;99151.51;109547;1263;21982;-78
2022/09/17 15:35:16;;;;;;;5.20;3.20;;;;;;;15.82;56.17;99157.04;109932;1257;21968;-78
2022/09/17 15:37:54;;;;;;;5.20;3.50;;;;;;;15.78;56.29;99156.73;110500;1254;23774;-78
2022/09/17 15:40:43;;;;;;;9.70;3.40;;;;;;;15.75;56.65;99164.54;110463;1254;22016;-78
2022/09/17 15:43:30;;;;;;;6.70;3.10;;;;;;;15.77;56.91;99165.26;110559;1254;21960;-78
2022/09/17 15:46:26;;;;;;;13.30;4.30;;;;;;;15.76;57.02;99167.42;110165;1258;22534;-78
2022/09/17 15:49:01;;;;;;;7.30;3.80;;;;;;;15.70;57.06;99176.02;110204;1260;22548;-79
2022/09/17 15:51:36;;;;;;;5.60;3.30;;;;;;;15.60;57.02;99183.77;110389;1257;22239;-78
2022/09/17 15:54:06;;;;;;;6.80;4.10;;;;;;;15.49;57.23;99188.48;109655;1257;23617;-77
2022/09/17 15:56:43;;;;;;;6.90;4.90;;;;;;;15.40;57.51;99188.29;110140;1258;21990;-77
2022/09/17 15:59:18;;;;;;;6.30;4.40;;;;;;;15.33;57.66;99186.52;110098;1257;22032;-77
2022/09/17 16:01:55;;;;;;;10.30;4.80;;;;;;;15.31;58.00;99189.87;110367;1255;21990;-77
2022/09/17 16:04:33;;;;;;;5.90;4.60;;;;;;;15.24;58.10;99191.91;110285;1254;23036;-77
2022/09/17 16:07:11;;;;;;;6.50;4.50;;;;;;;15.20;58.33;99193.30;110276;1254;21984;-78
2022/09/17 16:09:50;;;;;;;7.50;4.50;;;;;;;15.15;58.51;99199.48;110633;1254;21973;-77
2022/09/17 16:12:25;;;;;;;5.00;3.20;;;;;;;15.07;58.42;99200.59;110471;1254;21966;-76
2022/09/17 16:15:00;;;;;;;5.80;2.90;;;;;;;14.98;58.26;99200.87;110489;1254;23820;-78
2022/09/17 16:17:58;;;;;;;7.20;3.50;;;;;;;14.89;58.27;99202.08;110422;1257;23581;-78
2022/09/17 16:20:28;;;;;;;6.10;3.20;;;;;;;14.82;58.57;99204.85;109738;1260;22097;-77
2022/09/17 16:22:57;;;;;;;5.40;3.30;;;;;;;14.80;58.49;99210.13;109787;1260;23057;-79
2022/09/17 16:25:28;;;;;;;7.50;3.40;;;;;;;14.76;58.45;99212.67;109891;1260;22478;-78
2022/09/17 16:28:05;;;;;;;8.20;3.10;;;;;;;14.73;58.83;99216.19;109709;1260;21989;-77
2022/09/17 16:30:34;;;;;;;7.00;3.50;;;;;;;14.75;59.04;99216.27;109616;1261;21974;-77
2022/09/17 16:33:05;;;;;;;10.90;3.70;;;;;;;14.73;59.01;99217.06;109905;1260;23072;-78
2022/09/17 16:35:37;;;;;;;7.70;4.00;;;;;;;14.69;59.10;99214.42;109928;1261;21966;-78
2022/09/17 16:38:07;;;;;;;;;;;;;;;14.64;59.26;99208.27;109914;1261;21957;-77
2022/09/17 16:40:46;;;;;;;10.40;4.70;;;;;;;14.52;59.68;99201.21;109711;1260;22012;-77
2022/09/17 16:43:15;;;;;;;8.40;4.40;;;;;;;14.47;59.65;99205.11;108994;1267;259496;-77
2022/09/17 16:46:05;;;;;;;6.10;4.10;;;;;;;14.49;59.98;99205.29;109090;1267;24045;-79
2022/09/17 16:48:34;;;;;;;9.10;8.20;;;;;;;14.53;60.20;99209.22;109238;1267;22152;-77
2022/09/17 16:51:08;;;;;;;18.30;16.40;;;;;;;14.55;60.23;99210.29;109539;1264;21978;-78
2022/09/17 16:53:38;;;;;;;30.50;27.40;;;;;;;14.54;60.29;99215.32;109040;1264;23699;-78
2022/09/17 16:56:13;;;;;;;78.30;70.60;;;;;;;14.50;60.38;99216.81;108640;1273;24308;-79
2022/09/17 16:58:42;;;;;;;194.60;175.70;;;;;;;14.45;60.58;99217.13;108982;1267;21999;-79
2022/09/17 17:01:14;;;;;;;195.10;175.80;;;;;;;14.42;60.94;99214.36;109164;1264;21997;-79
2022/09/17 17:03:50;;;;;;;27.30;24.50;;;;;;;14.44;61.33;99214.95;109133;1265;22044;-78
2022/09/17 17:06:20;;;;;;;16.60;11.50;;;;;;;14.44;61.29;99216.35;109291;1266;22042;-79
2022/09/17 17:08:50;;;;;;;22.30;15.40;;;;;;;14.42;61.30;99226.31;109131;1266;22775;-78
2022/09/17 17:11:20;;;;;;;12.50;9.50;;;;;;;14.37;61.25;99231.52;109109;1267;23103;-77
2022/09/17 17:13:54;;;;;;;15.20;8.10;;;;;;;14.29;61.47;99232.44;109141;1260;22434;-78
2022/09/17 17:16:24;;;;;;;10.80;7.60;;;;;;;14.26;61.66;99232.46;110179;1260;23601;-78
2022/09/17 17:18:54;;;;;;;13.80;8.80;;;;;;;14.26;61.96;99236.88;109923;1260;23713;-78
2022/09/17 17:21:24;;;;;;;14.30;9.90;;;;;;;14.24;62.15;99235.77;109861;1257;23286;-78
2022/09/17 17:23:53;;;;;;;14.70;10.10;;;;;;;14.21;62.24;99234.23;110359;1256;23799;-78
2022/09/17 17:26:23;;;;;;;13.30;9.60;;;;;;;14.18;62.42;99240.06;110245;1257;22152;-78
2022/09/17 17:28:52;;;;;;;13.10;8.60;;;;;;;14.14;62.56;99237.67;109771;1262;21971;-77
2022/09/17 17:31:21;;;;;;;13.90;8.70;;;;;;;14.15;62.84;99235.41;110122;1260;21990;-77
2022/09/17 17:33:50;;;;;;;14.20;11.10;;;;;;;14.14;62.99;99235.43;110123;1260;23684;-77
2022/09/17 17:36:22;;;;;;;17.20;11.70;;;;;;;14.12;63.10;99227.90;110003;1260;23053;-77
2022/09/17 17:38:58;;;;;;;15.60;11.10;;;;;;;14.09;63.30;99229.36;110170;1259;23080;-76
2022/09/17 17:41:27;;;;;;;18.90;15.00;;;;;;;14.04;63.41;99229.66;109307;1267;22026;-77
2022/09/17 17:43:56;;;;;;;21.90;17.50;;;;;;;14.00;63.50;99229.91;109165;1264;23615;-79
2022/09/17 17:46:25;;;;;;;18.90;14.00;;;;;;;13.96;63.65;99234.74;108688;1269;22055;-78
2022/09/17 17:48:56;;;;;;;17.30;11.70;;;;;;;13.92;63.78;99238.02;109109;1267;24057;-77
2022/09/17 17:51:26;;;;;;;19.90;11.60;;;;;;;13.87;64.01;99238.36;108744;1270;22014;-76
2022/09/17 17:53:57;;;;;;;19.60;11.30;;;;;;;13.81;64.10;99240.90;108497;1276;22107;-78
2022/09/17 17:56:28;;;;;;;19.80;14.30;;;;;;;13.76;64.34;99241.37;108528;1276;22021;-77
2022/09/17 17:58:57;;;;;;;24.30;17.40;;;;;;;13.74;64.56;99242.25;107306;1270;1798518;-77
2022/09/17 18:01:30;;;;;;;42.10;29.10;;;;;;;13.72;64.77;99243.08;108891;1270;21979;-78
2022/09/17 18:04:04;;;;;;;37.40;27.40;;;;;;;13.69;64.90;99244.71;108854;1267;21985;-76
2022/09/17 18:06:33;;;;;;;19.50;14.60;;;;;;;13.65;64.87;99238.98;109000;1267;23798;-78
2022/09/17 18:09:04;;;;;;;15.90;11.40;;;;;;;13.62;65.15;99241.31;109274;1260;23578;-75